createdAt,value
2022-11-04T00:00:30.356Z,99351.38
2022-11-04T00:02:58.654Z,99343.59
2022-11-04T00:05:26.527Z,99345.84
2022-11-04T00:08:13.290Z,99324.34
2022-11-04T00:10:59.916Z,99349.91
2022-11-04T00:13:30.306Z,99336.22
2022-11-04T00:16:20.356Z,99332.25
2022-11-04T00:18:48.320Z,99330.34
2022-11-04T00:21:35.349Z,99333.47
2022-11-04T00:24:22.680Z,99324.78
2022-11-04T00:27:09.816Z,99283.41
2022-11-04T00:29:37.660Z,99281.75
2022-11-04T00:32:24.294Z,99320.06
2022-11-04T00:34:52.168Z,99272.34
2022-11-04T00:37:20.251Z,99259.13
2022-11-04T00:39:49.006Z,99306.56
2022-11-04T00:42:18.095Z,99286.53
2022-11-04T00:44:46.133Z,99259.44
2022-11-04T00:47:13.953Z,99244.53
2022-11-04T00:49:45.503Z,99294.09
2022-11-04T00:52:13.364Z,99238.34
2022-11-04T00:54:41.297Z,99280.56
2022-11-04T00:57:13.439Z,99273.00
2022-11-04T00:59:42.733Z,99268.84
2022-11-04T01:02:12.034Z,99279.97
2022-11-04T01:04:40.110Z,99264.63
2022-11-04T01:07:08.455Z,99264.38
2022-11-04T01:09:36.450Z,99253.22
2022-11-04T01:12:04.621Z,99175.38
2022-11-04T01:14:32.637Z,99260.91
2022-11-04T01:17:00.699Z,99250.94
2022-11-04T01:19:29.332Z,99254.22
2022-11-04T01:21:57.331Z,99224.69
2022-11-04T01:24:25.184Z,99191.63
2022-11-04T01:26:53.038Z,99236.94
2022-11-04T01:29:21.068Z,99176.41
2022-11-04T01:31:48.845Z,99208.78
2022-11-04T01:34:16.886Z,99225.44
2022-11-04T01:36:44.882Z,99135.16
2022-11-04T01:39:13.621Z,99095.50
2022-11-04T01:41:42.092Z,99187.06
2022-11-04T01:44:49.149Z,99211.41
2022-11-04T01:47:16.908Z,99190.31
2022-11-04T01:50:24.957Z,99204.31
2022-11-04T01:53:17.674Z,99211.53
2022-11-04T01:55:56.609Z,99150.63
2022-11-04T01:58:29.986Z,99205.28
2022-11-04T02:00:58.370Z,99201.09
2022-11-04T02:03:38.783Z,99195.31
2022-11-04T02:06:08.029Z,99143.44
2022-11-04T02:08:37.258Z,99128.09
2022-11-04T02:11:05.422Z,99186.00
2022-11-04T02:13:37.432Z,99135.63
2022-11-04T02:16:21.136Z,99183.84
2022-11-04T02:19:10.765Z,99179.88
2022-11-04T02:22:36.908Z,99178.44
2022-11-04T02:25:33.470Z,99169.91
2022-11-04T02:28:32.214Z,99167.28
2022-11-04T02:31:39.165Z,99168.34
2022-11-04T02:34:11.024Z,99152.56
2022-11-04T02:37:06.828Z,99171.63
2022-11-04T02:39:59.175Z,99131.81
2022-11-04T02:42:37.540Z,99138.50
2022-11-04T02:45:21.867Z,99171.94
2022-11-04T02:48:12.169Z,99164.72
2022-11-04T02:50:54.464Z,99151.53
2022-11-04T02:53:33.724Z,99144.13
2022-11-04T02:56:04.288Z,99108.63
2022-11-04T02:58:38.969Z,99100.28
2022-11-04T03:01:11.242Z,99135.88
2022-11-04T03:03:47.488Z,99052.72
2022-11-04T03:06:19.203Z,99138.75
2022-11-04T03:08:51.538Z,99141.41
2022-11-04T03:11:23.701Z,99139.00
2022-11-04T03:14:01.846Z,99093.09
2022-11-04T03:16:57.466Z,99122.13
2022-11-04T03:19:54.624Z,99145.84
2022-11-04T03:22:29.522Z,99130.50
2022-11-04T03:24:57.986Z,99136.00
2022-11-04T03:27:42.495Z,99128.00
2022-11-04T03:30:20.739Z,99123.09
2022-11-04T03:33:14.235Z,99101.03
2022-11-04T03:35:42.166Z,99123.56
2022-11-04T03:38:10.381Z,99121.78
2022-11-04T03:40:38.381Z,99111.31
2022-11-04T03:43:23.516Z,99117.31
2022-11-04T03:45:54.217Z,99117.78
2022-11-04T03:48:23.916Z,99123.53
2022-11-04T03:50:51.935Z,99114.94
2022-11-04T03:56:15.362Z,99116.59
2022-11-04T03:59:11.440Z,99107.25
2022-11-04T04:01:42.159Z,99072.03
2022-11-04T04:04:38.096Z,99114.78
2022-11-04T04:07:39.020Z,99096.69
2022-11-04T04:10:37.482Z,99116.94
2022-11-04T04:13:31.195Z,99092.81
2022-11-04T04:16:08.503Z,99078.44
2022-11-04T04:18:55.659Z,99063.47
2022-11-04T04:21:49.618Z,99085.63
2022-11-04T04:24:40.178Z,99055.81
2022-11-04T04:27:28.147Z,99099.28
2022-11-04T04:29:57.075Z,99041.78
2022-11-04T04:32:28.895Z,99088.47
2022-11-04T04:35:17.091Z,99092.28
2022-11-04T04:37:46.330Z,99041.63
2022-11-04T04:40:38.667Z,99049.38
2022-11-04T04:43:28.323Z,99082.66
2022-11-04T04:45:56.997Z,99073.75
2022-11-04T04:48:25.202Z,99075.91
2022-11-04T04:50:57.133Z,99070.22
2022-11-04T04:53:25.074Z,99066.38
2022-11-04T04:55:53.030Z,99070.34
2022-11-04T04:58:21.690Z,99082.16
2022-11-04T05:00:49.840Z,99077.00
2022-11-04T05:03:17.708Z,99068.38
2022-11-04T05:05:45.569Z,99073.03
2022-11-04T05:08:13.702Z,99023.25
2022-11-04T05:10:41.737Z,99059.38
2022-11-04T05:13:27.311Z,99071.94
2022-11-04T05:15:55.891Z,99067.47
2022-11-04T05:18:24.685Z,99053.34
2022-11-04T05:20:52.531Z,99058.34
2022-11-04T05:23:20.850Z,99036.00
2022-11-04T05:25:48.706Z,99015.53
2022-11-04T05:28:16.706Z,99020.66
2022-11-04T05:30:44.809Z,99067.84
2022-11-04T05:33:12.920Z,99024.47
2022-11-04T05:35:40.937Z,99061.19
2022-11-04T05:38:09.553Z,99068.72
2022-11-04T05:40:37.659Z,99040.25
2022-11-04T05:43:05.791Z,99050.25
2022-11-04T05:45:34.174Z,99015.38
2022-11-04T05:48:05.102Z,99057.38
2022-11-04T05:50:35.250Z,99054.63
2022-11-04T05:53:03.220Z,99055.78
2022-11-04T05:55:31.153Z,99056.94
2022-11-04T05:57:59.497Z,99039.94
2022-11-04T06:00:28.424Z,99055.84
2022-11-04T06:02:57.571Z,99022.47
2022-11-04T06:05:27.888Z,99047.50
2022-11-04T06:07:56.969Z,99036.81
2022-11-04T06:10:25.810Z,99044.75
2022-11-04T06:12:54.060Z,99020.78
2022-11-04T06:15:22.514Z,99035.44
2022-11-04T06:17:50.927Z,99028.38
2022-11-04T06:20:18.766Z,99035.75
2022-11-04T06:22:46.695Z,99032.03
2022-11-04T06:25:14.732Z,98966.31
2022-11-04T06:27:42.718Z,98985.50
2022-11-04T06:30:11.729Z,99034.13
2022-11-04T06:32:39.655Z,99038.19
2022-11-04T06:35:09.188Z,99032.19
2022-11-04T06:37:37.997Z,99030.13
2022-11-04T06:40:06.920Z,99004.31
2022-11-04T06:42:34.892Z,99032.66
2022-11-04T06:45:03.939Z,98995.00
2022-11-04T06:47:31.827Z,99028.78
2022-11-04T06:49:59.827Z,99027.94
2022-11-04T06:52:27.861Z,99029.09
2022-11-04T06:54:55.673Z,98989.06
2022-11-04T06:57:23.542Z,99031.59
2022-11-04T06:59:51.499Z,99036.06
2022-11-04T07:02:19.600Z,99024.50
2022-11-04T07:04:47.522Z,99021.59
2022-11-04T07:07:15.624Z,98972.84
2022-11-04T07:09:43.526Z,99007.13
2022-11-04T07:12:11.371Z,98916.31
2022-11-04T07:14:39.490Z,98963.28
2022-11-04T07:17:07.883Z,98943.22
2022-11-04T07:19:35.950Z,98948.94
2022-11-04T07:22:03.860Z,98967.59
2022-11-04T07:24:31.703Z,98967.59
2022-11-04T07:26:59.590Z,98967.03
2022-11-04T07:29:27.619Z,98957.81
2022-11-04T07:31:55.642Z,98968.41
2022-11-04T07:34:23.636Z,98965.03
2022-11-04T07:36:51.666Z,98965.28
2022-11-04T07:39:19.669Z,98960.00
2022-11-04T07:41:47.549Z,98960.00
2022-11-04T07:44:15.579Z,98947.03
2022-11-04T07:46:43.498Z,98951.59
2022-11-04T07:49:11.441Z,98940.28
2022-11-04T07:51:39.575Z,98938.19
2022-11-04T07:54:08.010Z,98933.44
2022-11-04T07:56:35.958Z,98886.53
2022-11-04T07:59:07.800Z,98947.88
2022-11-04T08:01:35.816Z,98905.00
2022-11-04T08:04:05.294Z,98900.25
2022-11-04T08:06:33.662Z,98892.00
2022-11-04T08:09:01.592Z,98907.97
2022-11-04T08:11:29.558Z,98927.06
2022-11-04T08:13:57.733Z,98927.59
2022-11-04T08:16:31.418Z,98922.44
2022-11-04T08:19:02.680Z,98919.66
2022-11-04T08:21:33.121Z,98902.44
2022-11-04T08:24:03.957Z,98890.75
2022-11-04T08:26:32.144Z,98868.31
2022-11-04T08:29:05.333Z,98904.88
2022-11-04T08:31:34.001Z,98851.31
2022-11-04T08:34:02.395Z,98896.69
2022-11-04T08:36:34.601Z,98851.56
2022-11-04T08:39:10.373Z,98886.50
2022-11-04T08:41:43.225Z,98858.56
2022-11-04T08:44:16.085Z,98838.50
2022-11-04T08:46:45.548Z,98885.88
2022-11-04T08:49:19.506Z,98874.38
2022-11-04T08:51:56.502Z,98876.88
2022-11-04T08:54:26.674Z,98874.63
2022-11-04T08:56:54.636Z,98859.31
2022-11-04T08:59:23.224Z,98779.63
2022-11-04T09:01:51.630Z,98861.22
2022-11-04T09:04:20.066Z,98830.09
2022-11-04T09:06:48.655Z,98845.03
2022-11-04T09:09:17.662Z,98882.13
2022-11-04T09:11:46.580Z,98847.50
2022-11-04T09:14:15.155Z,98795.78
2022-11-04T09:16:43.216Z,98806.50
2022-11-04T09:19:11.525Z,98825.16
2022-11-04T09:21:39.817Z,98760.44
2022-11-04T09:24:09.082Z,98824.72
2022-11-04T09:26:37.255Z,98831.09
2022-11-04T09:29:06.832Z,98831.94
2022-11-04T09:31:34.768Z,98810.59
2022-11-04T09:34:02.826Z,98804.63
2022-11-04T09:36:30.800Z,98771.53
2022-11-04T09:38:58.575Z,98750.91
2022-11-04T09:41:44.818Z,98794.69
2022-11-04T09:45:14.821Z,98811.13
2022-11-04T09:47:35.400Z,98807.28
2022-11-04T09:50:03.905Z,98800.13
2022-11-04T09:52:44.533Z,98759.53
2022-11-04T09:55:30.205Z,98762.97
2022-11-04T09:57:59.189Z,98768.88
2022-11-04T10:00:30.874Z,98714.03
2022-11-04T10:03:04.987Z,98762.66
2022-11-04T10:06:06.396Z,98764.59
2022-11-04T10:09:17.757Z,98750.19
2022-11-04T10:12:16.131Z,98730.88
2022-11-04T10:15:12.960Z,98725.94
2022-11-04T10:18:19.106Z,98732.84
2022-11-04T10:21:31.047Z,98720.91
2022-11-04T10:24:40.189Z,98731.09
2022-11-04T10:27:32.722Z,98737.09
2022-11-04T10:30:25.922Z,98730.81
2022-11-04T10:33:34.613Z,98719.59
2022-11-04T10:36:09.301Z,98716.69
2022-11-04T10:38:46.850Z,98705.63
2022-11-04T10:41:37.071Z,98694.75
2022-11-04T10:44:29.196Z,98688.25
2022-11-04T10:47:08.399Z,98645.66
2022-11-04T10:50:30.978Z,98693.31
2022-11-04T10:53:15.868Z,98681.63
2022-11-04T10:56:20.835Z,98684.47
2022-11-04T10:58:49.245Z,98672.00
2022-11-04T11:01:59.825Z,98679.63
2022-11-04T11:04:40.751Z,98664.81
2022-11-04T11:07:12.106Z,98655.44
2022-11-04T11:09:49.754Z,98667.28
2022-11-04T11:12:50.473Z,98615.88
2022-11-04T11:15:24.973Z,98647.34
2022-11-04T11:18:17.294Z,98603.66
2022-11-04T11:20:52.299Z,98630.63
2022-11-04T11:23:47.579Z,98636.94
2022-11-04T11:26:36.358Z,98620.16
2022-11-04T11:29:11.628Z,98621.00
2022-11-04T11:31:40.991Z,98584.38
2022-11-04T11:34:39.153Z,98623.53
2022-11-04T11:37:25.955Z,98631.47
2022-11-04T11:39:53.874Z,98584.41
2022-11-04T11:42:21.840Z,98621.94
2022-11-04T11:45:00.171Z,98611.13
2022-11-04T11:47:30.650Z,98607.84
2022-11-04T11:50:34.597Z,98630.06
2022-11-04T11:53:17.272Z,98610.75
2022-11-04T11:55:59.721Z,98548.03
2022-11-04T12:02:28.635Z,98606.63
2022-11-04T12:11:15.659Z,98590.69
2022-11-04T12:13:57.848Z,98561.25
2022-11-04T12:16:31.314Z,98546.84
2022-11-04T12:19:31.245Z,98536.59
2022-11-04T12:22:34.272Z,98585.59
2022-11-04T12:25:28.482Z,98592.44
2022-11-04T12:28:10.844Z,98597.22
2022-11-04T12:30:59.993Z,98560.28
2022-11-04T12:33:57.777Z,98586.66
2022-11-04T12:37:25.207Z,98600.75
2022-11-04T12:40:01.787Z,98592.31
2022-11-04T12:42:35.694Z,98574.75
2022-11-04T12:45:12.943Z,98480.94
2022-11-04T12:47:44.952Z,98544.63
2022-11-04T12:50:41.269Z,98502.94
2022-11-04T12:53:57.295Z,98541.16
2022-11-04T12:56:41.779Z,98564.50
2022-11-04T12:59:48.857Z,98557.66
2022-11-04T13:02:28.369Z,98543.09
2022-11-04T13:05:45.528Z,98542.31
2022-11-04T13:08:44.665Z,98544.25
2022-11-04T13:11:31.396Z,98509.75
2022-11-04T13:14:29.559Z,98548.56
2022-11-04T13:17:12.724Z,98510.97
2022-11-04T13:19:54.658Z,98535.19
2022-11-04T13:22:32.195Z,98571.72
2022-11-04T13:25:35.011Z,98563.56
2022-11-04T13:28:04.280Z,98561.75
2022-11-04T13:30:45.052Z,98552.81
2022-11-04T13:33:37.624Z,98569.97
2022-11-04T13:36:20.321Z,98588.94
2022-11-04T13:38:55.029Z,98524.22
2022-11-04T13:41:47.009Z,98561.56
2022-11-04T13:44:30.350Z,98571.09
2022-11-04T13:47:02.952Z,98573.44
2022-11-04T13:49:37.203Z,98537.19
2022-11-04T13:52:13.747Z,98586.91
2022-11-04T13:54:53.640Z,98586.06
2022-11-04T13:57:35.061Z,98539.44
2022-11-04T14:00:12.757Z,98571.69
2022-11-04T14:02:46.342Z,98570.03
2022-11-04T14:05:37.250Z,98572.41
2022-11-04T14:08:16.349Z,98554.97
2022-11-04T14:10:48.510Z,98532.16
2022-11-04T14:13:31.688Z,98573.00
2022-11-04T14:16:18.000Z,98582.56
2022-11-04T14:18:49.154Z,98583.31
2022-11-04T14:21:29.562Z,98588.19
2022-11-04T14:24:02.446Z,98539.84
2022-11-04T14:26:43.307Z,98589.50
2022-11-04T14:29:25.565Z,98552.41
2022-11-04T14:31:57.297Z,98595.25
2022-11-04T14:34:33.745Z,98575.84
2022-11-04T14:37:23.381Z,98589.34
2022-11-04T14:40:00.815Z,98554.44
2022-11-04T14:42:55.654Z,98616.44
2022-11-04T14:45:31.670Z,98567.84
2022-11-04T14:48:18.672Z,98563.09
2022-11-04T14:50:52.954Z,98600.66
2022-11-04T14:53:37.846Z,98611.97
2022-11-04T14:56:23.857Z,98617.31
2022-11-04T14:58:57.155Z,98623.16
2022-11-04T15:01:34.285Z,98625.50
2022-11-04T15:04:21.338Z,98625.19
2022-11-04T15:07:01.138Z,98621.41
2022-11-04T15:09:32.003Z,98620.53
2022-11-04T15:12:33.419Z,98587.78
2022-11-04T15:15:01.543Z,98631.19
2022-11-04T15:17:33.609Z,98648.28
2022-11-04T15:20:04.815Z,98646.13
2022-11-04T15:22:33.867Z,98641.63
2022-11-04T15:25:06.130Z,98626.00
2022-11-04T15:27:35.278Z,98644.47
2022-11-04T15:30:08.483Z,98641.44
2022-11-04T15:32:36.419Z,98655.22
2022-11-04T15:35:04.977Z,98657.59
2022-11-04T15:37:43.373Z,98660.06
2022-11-04T15:40:15.340Z,98658.25
2022-11-04T15:42:45.395Z,98625.16
2022-11-04T15:45:37.419Z,98658.59
2022-11-04T15:48:28.630Z,98662.56
2022-11-04T15:51:24.267Z,98650.91
2022-11-04T15:54:08.259Z,98588.44
2022-11-04T15:56:55.051Z,98664.88
2022-11-04T15:59:33.917Z,98654.94
2022-11-04T16:02:05.858Z,98662.22
2022-11-04T16:04:34.698Z,98659.91
2022-11-04T16:07:16.069Z,98613.50
2022-11-04T16:09:54.787Z,98662.41
2022-11-04T16:12:37.699Z,98664.56
2022-11-04T16:15:05.997Z,98604.53
2022-11-04T16:17:34.365Z,98668.53
2022-11-04T16:20:09.328Z,98666.84
2022-11-04T16:22:39.814Z,98668.69
2022-11-04T16:25:19.828Z,98623.28
2022-11-04T16:27:48.649Z,98658.22
2022-11-04T16:30:21.785Z,98655.22
2022-11-04T16:32:54.522Z,98655.06
2022-11-04T16:35:28.177Z,98649.75
2022-11-04T16:37:56.799Z,98653.22
2022-11-04T16:40:26.119Z,98646.88
2022-11-04T16:42:54.650Z,98658.19
2022-11-04T16:45:30.229Z,98642.25
2022-11-04T16:47:59.043Z,98601.97
2022-11-04T16:50:28.463Z,98660.66
2022-11-04T16:52:56.543Z,98611.28
2022-11-04T16:55:25.356Z,98659.53
2022-11-04T16:58:05.007Z,98565.44
2022-11-04T17:00:33.816Z,98649.41
2022-11-04T17:03:21.197Z,98652.19
2022-11-04T17:05:56.623Z,98650.53
2022-11-04T17:08:25.994Z,98642.25
2022-11-04T17:10:54.730Z,98642.41
2022-11-04T17:13:32.106Z,98642.25
2022-11-04T17:16:08.299Z,98592.53
2022-11-04T17:18:36.831Z,98593.34
2022-11-04T17:21:13.383Z,98638.28
2022-11-04T17:23:41.843Z,98645.56
2022-11-04T17:26:12.571Z,98634.94
2022-11-04T17:28:40.584Z,98632.91
2022-11-04T17:31:18.643Z,98630.59
2022-11-04T17:33:46.815Z,98624.59
2022-11-04T17:36:19.511Z,98589.22
2022-11-04T17:38:47.760Z,98622.63
2022-11-04T17:41:34.082Z,98636.59
2022-11-04T17:44:03.595Z,98645.72
2022-11-04T17:46:34.650Z,98643.41
2022-11-04T17:49:14.784Z,98601.03
2022-11-04T17:51:48.582Z,98640.09
2022-11-04T17:54:17.039Z,98640.25
2022-11-04T17:56:45.238Z,98642.25
2022-11-04T17:59:16.129Z,98644.91
2022-11-04T18:01:45.592Z,98604.97
2022-11-04T18:04:17.438Z,98595.84
2022-11-04T18:06:45.568Z,98596.50
2022-11-04T18:09:16.947Z,98635.25
2022-11-04T18:12:04.709Z,98585.22
2022-11-04T18:14:34.019Z,98646.25
2022-11-04T18:17:05.844Z,98584.06
2022-11-04T18:19:33.884Z,98641.91
2022-11-04T18:22:02.349Z,98636.25
2022-11-04T18:24:30.505Z,98633.25
2022-11-04T18:27:00.963Z,98590.19
2022-11-04T18:29:29.191Z,98625.03
2022-11-04T18:31:57.619Z,98609.88
2022-11-04T18:34:25.850Z,98602.53
2022-11-04T18:36:53.901Z,98638.47
2022-11-04T18:39:22.288Z,98633.09
2022-11-04T18:41:50.581Z,98644.75
2022-11-04T18:44:25.085Z,98630.16
2022-11-04T18:46:54.804Z,98618.84
2022-11-04T18:49:22.908Z,98616.38
2022-11-04T18:51:50.924Z,98611.44
2022-11-04T18:54:19.791Z,98606.91
2022-11-04T18:56:47.738Z,98605.09
2022-11-04T18:59:16.630Z,98568.34
2022-11-04T19:01:45.846Z,98602.53
2022-11-04T19:04:14.495Z,98570.59
2022-11-04T19:06:45.926Z,98625.56
2022-11-04T19:09:46.160Z,98618.09
2022-11-04T19:12:24.178Z,98600.09
2022-11-04T19:14:53.374Z,98618.69
2022-11-04T19:17:21.806Z,98633.81
2022-11-04T19:19:50.107Z,98597.41
2022-11-04T19:22:18.450Z,98628.66
2022-11-04T19:24:46.415Z,98620.38
2022-11-04T19:27:14.607Z,98622.69
2022-11-04T19:29:42.712Z,98577.97
2022-11-04T19:32:14.365Z,98607.69
2022-11-04T19:34:44.048Z,98622.56
2022-11-04T19:37:12.005Z,98620.09
2022-11-04T19:39:40.378Z,98621.38
2022-11-04T19:42:30.901Z,98619.88
2022-11-04T19:44:58.732Z,98618.38
2022-11-04T19:47:26.720Z,98631.94
2022-11-04T19:49:55.859Z,98635.06
2022-11-04T19:52:23.991Z,98618.25
2022-11-04T19:54:52.083Z,98625.72
2022-11-04T19:57:20.095Z,98626.03
2022-11-04T19:59:49.339Z,98629.91
2022-11-04T20:02:19.031Z,98619.53
2022-11-04T20:04:48.168Z,98629.81
2022-11-04T20:07:17.252Z,98630.03
2022-11-04T20:09:45.278Z,98557.44
2022-11-04T20:12:31.810Z,98582.94
2022-11-04T20:15:00.068Z,98616.53
2022-11-04T20:17:28.026Z,98591.84
2022-11-04T20:19:55.981Z,98642.13
2022-11-04T20:22:24.380Z,98644.28
2022-11-04T20:24:52.202Z,98642.75
2022-11-04T20:27:20.215Z,98637.94
2022-11-04T20:29:48.354Z,98636.44
2022-11-04T20:32:16.740Z,98618.00
2022-11-04T20:34:45.094Z,98620.25
2022-11-04T20:37:13.363Z,98610.41
2022-11-04T20:39:45.232Z,98637.72
2022-11-04T20:42:13.500Z,98645.53
2022-11-04T20:44:41.554Z,98648.84
2022-11-04T20:47:09.788Z,98651.16
2022-11-04T20:49:38.548Z,98644.16
2022-11-04T20:52:06.823Z,98611.47
2022-11-04T20:54:35.158Z,98612.53
2022-11-04T20:57:03.207Z,98673.03
2022-11-04T20:59:31.134Z,98677.34
2022-11-04T21:01:59.935Z,98641.63
2022-11-04T21:04:33.274Z,98680.59
2022-11-04T21:07:04.031Z,98641.94
2022-11-04T21:09:32.739Z,98639.22
2022-11-04T21:12:00.655Z,98621.88
2022-11-04T21:14:30.405Z,98668.13
2022-11-04T21:16:58.615Z,98687.56
2022-11-04T21:19:26.630Z,98685.88
2022-11-04T21:21:54.660Z,98690.81
2022-11-04T21:24:23.327Z,98661.22
2022-11-04T21:26:51.294Z,98696.91
2022-11-04T21:29:20.412Z,98685.44
2022-11-04T21:31:49.062Z,98649.72
2022-11-04T21:34:17.436Z,98601.44
2022-11-04T21:36:45.788Z,98654.88
2022-11-04T21:39:14.037Z,98648.03
2022-11-04T21:41:41.941Z,98644.34
2022-11-04T21:44:12.761Z,98586.50
2022-11-04T21:46:41.687Z,98628.69
2022-11-04T21:49:12.675Z,98619.69
2022-11-04T21:51:40.879Z,98606.06
2022-11-04T21:54:08.921Z,98603.63
2022-11-04T21:56:36.851Z,98617.72
2022-11-04T21:59:05.329Z,98617.63
2022-11-04T22:01:33.605Z,98619.75
2022-11-04T22:04:02.701Z,98615.06
2022-11-04T22:06:35.053Z,98613.31
2022-11-04T22:09:08.688Z,98612.41
2022-11-04T22:11:39.064Z,98585.84
2022-11-04T22:14:08.809Z,98628.59
2022-11-04T22:16:39.312Z,98629.66
2022-11-04T22:19:10.859Z,98629.03
2022-11-04T22:21:41.845Z,98605.22
2022-11-04T22:24:16.665Z,98660.97
2022-11-04T22:26:45.000Z,98672.97
2022-11-04T22:29:12.949Z,98540.53
2022-11-04T22:31:43.085Z,98663.16
2022-11-04T22:34:11.480Z,98669.66
2022-11-04T22:36:39.976Z,98671.47
2022-11-04T22:39:15.019Z,98637.16
2022-11-04T22:41:46.667Z,98670.09
2022-11-04T22:44:15.390Z,98673.72
2022-11-04T22:46:43.962Z,98668.38
2022-11-04T22:49:13.255Z,98483.44
2022-11-04T22:51:41.315Z,98675.97
2022-11-04T22:54:10.862Z,98680.81
2022-11-04T22:56:39.138Z,98683.06
2022-11-04T22:59:08.279Z,98679.78
2022-11-04T23:01:36.578Z,98677.38
2022-11-04T23:04:05.648Z,98675.28
2022-11-04T23:06:33.544Z,98660.38
2022-11-04T23:09:01.475Z,98666.06
2022-11-04T23:11:49.491Z,98667.72
2022-11-04T23:14:47.454Z,98659.91
2022-11-04T23:17:40.714Z,98655.09
2022-11-04T23:20:15.858Z,98657.88
2022-11-04T23:23:02.822Z,98662.34
2022-11-04T23:25:30.985Z,98634.63
2022-11-04T23:28:17.453Z,98671.84
2022-11-04T23:30:52.111Z,98676.84
2022-11-04T23:33:40.045Z,98679.78
2022-11-04T23:36:27.428Z,98637.16
2022-11-04T23:38:55.546Z,98671.16
2022-11-04T23:41:42.071Z,98679.25
2022-11-04T23:44:30.313Z,98678.03
2022-11-04T23:47:16.668Z,98676.69
2022-11-04T23:50:03.484Z,98683.38
2022-11-04T23:52:50.003Z,98666.97
2022-11-04T23:55:37.012Z,98624.78
2022-11-04T23:58:24.279Z,98666.41
